Time;durP1;ratioP1;P1;durP2;ratioP2;P2;SDS_P1;SDS_P2;PMS_P1;PMS_P2;Temp;Humidity;BMP_temperature;BMP_pressure;BME280_temperature;BME280_humidity;BME280_pressure;Samples;Min_cycle;Max_cycle;Signal;HPM_P1;HPM_P2
2022/03/26 00:01:22;;;;;;;41.20;17.63;;;9.60;92.20;;;;;;20807146;28;20037;-77
2022/03/26 00:11:23;;;;;;;41.20;18.50;;;9.80;92.40;;;;;;20805795;28;20311;-76
2022/03/26 00:21:24;;;;;;;44.40;19.63;;;9.60;92.00;;;;;;20799568;28;20104;-77
2022/03/26 00:31:24;;;;;;;52.00;19.43;;;9.70;92.00;;;;;;20808178;28;20049;-76
2022/03/26 00:41:25;;;;;;;41.20;17.93;;;9.50;92.60;;;;;;20812229;28;20050;-76
2022/03/26 00:51:26;;;;;;;41.37;17.63;;;9.60;92.60;;;;;;20833284;28;20490;-76
2022/03/26 01:01:28;;;;;;;41.07;18.63;;;9.80;92.00;;;;;;20826980;28;20115;-75
2022/03/26 01:11:28;;;;;;;44.63;19.43;;;9.70;92.00;;;;;;20808625;28;20061;-75
2022/03/26 01:21:29;;;;;;;46.17;20.10;;;9.60;92.30;;;;;;20825555;28;20068;-76
2022/03/26 01:31:30;;;;;;;44.27;19.50;;;9.60;92.40;;;;;;20807230;28;20080;-76
2022/03/26 01:41:31;;;;;;;46.80;21.17;;;9.30;92.80;;;;;;20816632;28;20471;-76
2022/03/26 01:51:32;;;;;;;41.17;15.07;;;9.10;93.10;;;;;;20840355;28;20029;-76
2022/03/26 02:01:34;;;;;;;51.83;21.20;;;8.90;93.60;;;;;;20839629;28;20180;-75
2022/03/26 02:11:38;;;;;;;47.80;18.67;;;8.40;94.70;;;;;;20839341;28;20381;-76
2022/03/26 02:21:40;;;;;;;37.00;18.25;;;7.90;96.20;;;;;;20820267;28;20033;-75
2022/03/26 02:31:40;;;;;;;40.00;18.50;;;7.90;96.40;;;;;;20995103;22;20044;-75
2022/03/26 02:41:41;;;;;;;29.77;13.93;;;7.80;96.70;;;;;;21001965;28;20391;-77
2022/03/26 02:51:43;;;;;;;37.93;17.53;;;7.90;96.50;;;;;;20982852;28;20040;-76
2022/03/26 03:01:44;;;;;;;48.05;17.48;;;7.80;97.00;;;;;;21000183;28;20032;-76
2022/03/26 03:11:45;;;;;;;;;;;7.50;97.60;;;;;;20999844;28;20091;-76
2022/03/26 03:21:46;;;;;;;44.58;18.40;;;6.90;99.50;;;;;;20982223;28;19919;-76
2022/03/26 03:31:48;;;;;;;35.63;17.00;;;6.10;99.90;;;;;;21003318;28;20542;-77
2022/03/26 03:41:49;;;;;;;;;;;5.80;99.90;;;;;;20997375;28;20040;-76
2022/03/26 03:51:50;;;;;;;41.58;17.98;;;5.60;99.90;;;;;;20998903;28;19912;-76
2022/03/26 04:01:50;;;;;;;38.65;16.35;;;5.30;99.90;;;;;;20970170;28;20127;-76
2022/03/26 04:11:51;;;;;;;37.67;16.73;;;5.00;99.90;;;;;;20994418;28;20487;-76
2022/03/26 04:21:52;;;;;;;41.30;16.93;;;5.10;99.90;;;;;;20976142;28;20031;-77
2022/03/26 04:31:53;;;;;;;37.50;16.33;;;5.10;99.90;;;;;;20992819;28;20036;-76
2022/03/26 04:41:53;;;;;;;39.60;17.23;;;5.30;99.90;;;;;;20992449;28;20036;-76
2022/03/26 04:51:54;;;;;;;45.83;18.40;;;5.40;99.90;;;;;;20991471;28;20223;-76
2022/03/26 05:01:55;;;;;;;36.87;17.37;;;5.10;99.90;;;;;;20991023;28;20521;-76
2022/03/26 05:11:56;;;;;;;40.10;17.73;;;4.40;99.90;;;;;;20975871;28;20037;-76
2022/03/26 05:21:57;;;;;;;50.95;17.63;;;4.60;99.90;;;;;;20973962;28;20031;-76
2022/03/26 05:31:59;;;;;;;39.37;17.60;;;4.80;99.90;;;;;;20989600;28;20028;-75
2022/03/26 05:42:00;;;;;;;42.10;17.98;;;4.80;99.90;;;;;;20971545;28;20025;-74
2022/03/26 05:52:01;;;;;;;39.53;17.90;;;5.10;99.90;;;;;;20989295;28;20037;-75
2022/03/26 06:02:02;;;;;;;42.92;17.05;;;4.90;99.90;;;;;;20970764;28;20567;-75
2022/03/26 06:12:04;;;;;;;43.30;18.90;;;5.50;99.90;;;;;;20988504;28;20033;-75
2022/03/26 06:22:05;;;;;;;44.97;19.77;;;6.00;99.90;;;;;;20970873;28;20123;-75
2022/03/26 06:32:06;;;;;;;50.65;21.27;;;6.20;99.90;;;;;;21002368;28;20041;-75
2022/03/26 06:42:07;;;;;;;43.42;20.13;;;6.50;99.90;;;;;;21002097;28;20052;-75
2022/03/26 06:52:09;;;;;;;37.80;18.33;;;7.30;99.90;;;;;;21001263;28;20028;-76
2022/03/26 07:02:09;;;;;;;41.30;18.48;;;8.10;99.90;;;;;;21000651;28;20536;-76
2022/03/26 07:12:11;;;;;;;40.43;20.07;;;9.10;99.90;;;;;;20999854;28;20096;-76
2022/03/26 07:22:12;;;;;;;42.50;20.42;;;9.40;99.90;;;;;;20999599;28;20046;-75
2022/03/26 07:32:12;;;;;;;49.70;22.07;;;10.40;99.90;;;;;;20998016;28;20076;-76
2022/03/26 07:42:13;;;;;;;56.70;21.67;;;10.90;99.90;;;;;;20977620;28;20021;-76
2022/03/26 07:52:14;;;;;;;48.67;21.10;;;11.50;99.90;;;;;;20950592;28;20037;-76
2022/03/26 08:02:15;;;;;;;52.13;22.40;;;11.90;99.90;;;;;;20951952;28;20494;-76
2022/03/26 08:12:16;;;;;;;48.63;22.17;;;12.00;99.90;;;;;;20952711;28;20378;-76
2022/03/26 08:22:17;;;;;;;48.50;21.77;;;12.50;99.90;;;;;;20932571;28;20035;-76
2022/03/26 08:32:18;;;;;;;52.80;24.27;;;13.10;99.90;;;;;;20785933;23;20049;-78
2022/03/26 08:42:19;;;;;;;44.47;21.63;;;13.90;99.90;;;;;;20757585;28;20487;-77
2022/03/26 08:52:21;;;;;;;50.47;22.13;;;14.10;99.70;;;;;;20746214;28;20030;-76
2022/03/26 09:02:22;;;;;;;46.65;23.08;;;14.10;99.90;;;;;;20746037;28;20488;-75
2022/03/26 09:12:23;;;;;;;51.73;23.07;;;14.80;98.80;;;;;;20744523;28;20416;-76
2022/03/26 09:22:24;;;;;;;42.47;22.83;;;15.20;99.30;;;;;;20745417;28;20045;-76
2022/03/26 09:32:25;;;;;;;59.77;23.13;;;17.20;94.20;;;;;;20745061;28;20037;-77
2022/03/26 09:42:26;;;;;;;47.57;23.70;;;16.30;96.30;;;;;;20737829;28;20491;-76
2022/03/26 09:52:27;;;;;;;46.83;23.83;;;17.00;96.00;;;;;;20756939;28;20484;-76
2022/03/26 10:02:28;;;;;;;44.07;22.60;;;18.30;94.00;;;;;;20715490;28;20044;-76
2022/03/26 10:12:29;;;;;;;51.70;22.17;;;18.90;91.90;;;;;;20737947;28;20025;-76
2022/03/26 10:22:33;;;;;;;51.07;27.93;;;19.50;90.00;;;;;;20759045;28;20030;-76
2022/03/26 10:32:49;;;;;;;43.78;22.38;;;19.50;88.20;;;;;;20739455;28;20508;-76
2022/03/26 10:43:02;;;;;;;47.95;21.90;;;20.90;84.80;;;;;;20720929;28;20038;-75
2022/03/26 10:53:21;;;;;;;45.17;20.75;;;20.50;83.70;;;;;;20734180;28;20034;-76
2022/03/26 11:03:21;;;;;;;40.85;20.40;;;21.20;82.20;;;;;;20715494;28;20033;-75
2022/03/26 11:13:26;;;;;;;38.37;21.40;;;21.70;77.10;;;;;;20731386;28;20037;-76
2022/03/26 11:23:30;;;;;;;42.78;21.15;;;21.20;80.10;;;;;;20726645;28;20037;-77
2022/03/26 11:33:36;;;;;;;33.78;19.92;;;22.20;75.60;;;;;;20746242;28;20038;-77
2022/03/26 11:43:43;;;;;;;37.25;21.08;;;22.40;73.50;;;;;;20753898;28;20064;-78
2022/03/26 11:53:44;;;;;;;40.95;19.80;;;21.10;75.90;;;;;;20735486;28;20040;-78
2022/03/26 12:03:48;;;;;;;37.27;20.43;;;22.40;77.80;;;;;;20744861;28;20029;-77
2022/03/26 12:14:08;;;;;;;35.40;18.90;;;22.80;71.60;;;;;;20733581;28;20100;-77
2022/03/26 12:24:17;;;;;;;34.85;20.55;;;22.90;73.00;;;;;;20723675;28;20040;-76
2022/03/26 12:34:17;;;;;;;33.15;19.10;;;23.00;74.10;;;;;;20721585;28;20048;-76
2022/03/26 12:44:19;;;;;;;38.77;20.80;;;23.20;70.10;;;;;;20788747;28;20033;-76
2022/03/26 12:54:22;;;;;;;33.55;19.15;;;23.50;69.50;;;;;;20706589;28;20042;-76
2022/03/26 13:04:23;;;;;;;48.28;20.17;;;23.40;70.90;;;;;;20724705;28;20084;-76
2022/03/26 13:14:24;;;;;;;38.83;20.70;;;23.20;72.90;;;;;;20693668;28;20042;-76
2022/03/26 13:24:25;;;;;;;37.80;19.83;;;22.80;71.30;;;;;;20695123;28;20041;-77
2022/03/26 13:34:56;;;;;;;32.40;19.40;;;22.60;70.50;;;;;;20730251;28;20033;-77
2022/03/26 13:44:58;;;;;;;35.67;18.90;;;24.00;68.90;;;;;;20720283;28;20053;-77
2022/03/26 13:54:59;;;;;;;33.63;18.77;;;23.90;70.20;;;;;;20740231;28;20042;-76
2022/03/26 14:05:00;;;;;;;35.67;18.27;;;24.10;65.50;;;;;;20740725;28;20033;-76
2022/03/26 14:15:00;;;;;;;34.40;19.57;;;23.70;68.30;;;;;;20732246;28;20050;-76
2022/03/26 14:25:01;;;;;;;30.13;17.67;;;23.50;67.20;;;;;;20721097;23;20095;-75
2022/03/26 14:35:02;;;;;;;33.07;18.20;;;23.50;66.00;;;;;;20768234;28;20034;-75
2022/03/26 14:45:05;;;;;;;33.47;18.45;;;22.00;68.70;;;;;;20835973;28;20045;-74
2022/03/26 14:55:07;;;;;;;49.72;28.35;;;22.00;69.30;;;;;;20764903;28;20056;-74
2022/03/26 15:05:09;;;;;;;30.23;17.63;;;22.00;66.60;;;;;;20670027;28;20038;-74
2022/03/26 15:15:10;;;;;;;33.85;18.95;;;22.50;66.60;;;;;;20687767;28;20034;-75
2022/03/26 15:25:11;;;;;;;37.43;20.70;;;21.60;68.00;;;;;;20704252;28;20080;-75
2022/03/26 15:35:12;;;;;;;34.80;20.17;;;21.00;68.30;;;;;;20713550;28;20038;-75
2022/03/26 15:45:13;;;;;;;33.90;19.20;;;21.70;70.00;;;;;;20710233;28;20038;-75
2022/03/26 15:55:14;;;;;;;41.60;19.47;;;21.60;70.00;;;;;;20708920;28;20058;-74
2022/03/26 16:05:14;;;;;;;38.97;19.27;;;20.70;70.70;;;;;;20684859;28;20416;-74
2022/03/26 16:15:16;;;;;;;36.87;18.97;;;20.30;73.70;;;;;;20708632;28;20022;-74
2022/03/26 16:25:17;;;;;;;40.73;20.30;;;19.60;75.00;;;;;;20703469;28;20053;-75
2022/03/26 16:35:19;;;;;;;33.97;19.75;;;19.60;73.60;;;;;;20692043;28;20053;-76
2022/03/26 16:45:20;;;;;;;39.17;18.58;;;19.30;73.40;;;;;;20696560;28;20046;-76
2022/03/26 16:55:21;;;;;;;40.33;19.93;;;18.80;75.20;;;;;;20728099;28;20161;-76
2022/03/26 17:05:24;;;;;;;42.67;19.07;;;18.50;75.10;;;;;;20748004;28;20030;-76
2022/03/26 17:15:24;;;;;;;38.22;20.30;;;18.10;76.10;;;;;;20744390;28;20538;-75
2022/03/26 17:25:25;;;;;;;48.77;19.33;;;17.70;77.60;;;;;;20725526;28;20046;-75
2022/03/26 17:35:26;;;;;;;41.80;18.50;;;17.30;78.20;;;;;;20743984;28;20706;-75
2022/03/26 17:45:27;;;;;;;44.57;23.70;;;16.90;79.20;;;;;;20744851;28;20034;-75
2022/03/26 17:55:28;;;;;;;39.93;19.67;;;16.70;79.60;;;;;;20725418;28;20041;-75
2022/03/26 18:05:30;;;;;;;101.93;54.07;;;16.40;80.00;;;;;;20724872;28;20058;-75
2022/03/26 18:15:31;;;;;;;39.00;18.50;;;16.00;81.90;;;;;;20742068;28;20503;-75
2022/03/26 18:25:34;;;;;;;35.60;18.33;;;15.70;82.00;;;;;;20753729;28;20080;-75
2022/03/26 18:35:34;;;;;;;35.97;16.80;;;15.60;81.60;;;;;;20756020;28;20403;-75
2022/03/26 18:45:35;;;;;;;29.93;16.20;;;15.50;81.70;;;;;;20756226;28;20041;-76
2022/03/26 18:55:37;;;;;;;33.13;16.40;;;15.30;81.70;;;;;;20754489;28;20397;-76
2022/03/26 19:05:40;;;;;;;37.67;17.13;;;15.20;81.70;;;;;;20753826;28;20026;-76
2022/03/26 19:15:41;;;;;;;35.67;17.17;;;15.00;82.00;;;;;;20735140;28;20041;-75
2022/03/26 19:25:42;;;;;;;37.07;17.50;;;14.70;82.90;;;;;;20752831;28;20041;-74
2022/03/26 19:35:43;;;;;;;34.70;17.77;;;14.60;83.10;;;;;;20751168;28;20496;-75
2022/03/26 19:45:44;;;;;;;34.83;16.50;;;14.40;82.90;;;;;;20750105;28;20045;-75
2022/03/26 19:55:45;;;;;;;52.17;18.23;;;14.30;82.90;;;;;;20748736;28;20484;-75
2022/03/26 20:05:46;;;;;;;39.97;17.83;;;14.10;83.10;;;;;;20705693;28;20037;-74
2022/03/26 20:15:47;;;;;;;33.00;16.77;;;14.00;81.70;;;;;;20730271;28;20029;-75
2022/03/26 20:25:48;;;;;;;32.57;15.73;;;13.80;81.60;;;;;;20750069;23;20130;-74
2022/03/26 20:35:49;;;;;;;34.10;15.13;;;13.70;80.30;;;;;;20881414;28;20100;-74
2022/03/26 20:45:50;;;;;;;38.10;14.75;;;13.70;80.00;;;;;;20901297;28;20064;-75
2022/03/26 20:55:51;;;;;;;28.57;13.27;;;13.70;78.90;;;;;;20907773;28;20472;-74
2022/03/26 21:05:53;;;;;;;30.13;14.27;;;13.60;79.00;;;;;;20908997;28;20488;-74
2022/03/26 21:15:54;;;;;;;32.05;14.63;;;13.50;78.60;;;;;;20911768;28;20036;-74
2022/03/26 21:26:00;;;;;;;31.77;13.57;;;13.20;79.40;;;;;;20901465;28;20112;-74
2022/03/26 21:36:00;;;;;;;32.33;14.15;;;13.10;79.20;;;;;;20907062;28;20029;-73
2022/03/26 21:46:02;;;;;;;29.63;12.80;;;13.00;78.50;;;;;;20877678;28;20029;-74
2022/03/26 21:56:06;;;;;;;31.40;13.37;;;12.90;78.80;;;;;;20814411;28;20029;-75
2022/03/26 22:06:06;;;;;;;31.27;13.07;;;12.80;78.80;;;;;;20878732;28;20029;-74
2022/03/26 22:16:09;;;;;;;29.73;13.77;;;12.70;79.50;;;;;;20862046;28;20490;-73
2022/03/26 22:26:10;;;;;;;32.45;14.88;;;12.50;79.40;;;;;;20860659;28;20037;-74
2022/03/26 22:36:11;;;;;;;32.73;13.57;;;12.00;81.50;;;;;;20876675;28;20103;-74
2022/03/26 22:46:12;;;;;;;33.47;14.17;;;11.70;81.70;;;;;;20847255;28;20032;-74
2022/03/26 22:56:12;;;;;;;35.43;14.03;;;11.30;84.10;;;;;;20795355;28;20030;-74
2022/03/26 23:06:14;;;;;;;26.23;12.13;;;11.20;83.90;;;;;;20778980;28;20539;-73
2022/03/26 23:16:15;;;;;;;29.83;13.33;;;11.10;83.80;;;;;;20806670;28;20026;-74
2022/03/26 23:26:15;;;;;;;29.13;13.17;;;10.80;85.20;;;;;;20833842;28;20036;-74
2022/03/26 23:36:17;;;;;;;32.73;13.73;;;10.50;86.10;;;;;;20822172;28;20044;-73
2022/03/26 23:46:18;;;;;;;34.40;13.63;;;10.10;88.10;;;;;;20861366;28;20032;-73
2022/03/26 23:56:19;;;;;;;;;;;10.10;87.80;;;;;;20822749;28;20103;-73
